createdAt,value
2022-09-12T00:00:20.096Z,1020.4
2022-09-12T00:05:20.121Z,1020.5
2022-09-12T00:10:20.112Z,1020.4
2022-09-12T00:15:20.100Z,1020.4
2022-09-12T00:20:20.103Z,1020.3
2022-09-12T00:25:20.104Z,1020.3
2022-09-12T00:30:20.104Z,1020.3
2022-09-12T00:35:20.106Z,1020.2
2022-09-12T00:40:20.110Z,1020.2
2022-09-12T00:45:20.111Z,1020.2
2022-09-12T00:50:20.098Z,1020.1
2022-09-12T00:55:20.101Z,1020.1
2022-09-12T01:00:20.106Z,1020.1
2022-09-12T01:05:20.105Z,1020.1
2022-09-12T01:10:20.108Z,1019.9
2022-09-12T01:15:20.112Z,1019.8
2022-09-12T01:20:20.105Z,1019.8
2022-09-12T01:25:20.104Z,1019.8
2022-09-12T01:30:20.103Z,1019.8
2022-09-12T01:35:20.106Z,1019.8
2022-09-12T01:40:20.112Z,1019.9
2022-09-12T01:45:20.109Z,1019.8
2022-09-12T01:50:20.108Z,1019.9
2022-09-12T01:55:20.116Z,1019.8
2022-09-12T02:00:20.097Z,1019.8
2022-09-12T02:05:20.121Z,1019.8
2022-09-12T02:10:20.105Z,1019.8
2022-09-12T02:15:20.109Z,1019.8
2022-09-12T02:20:37.364Z,1019.7
2022-09-12T02:25:20.110Z,1019.7
2022-09-12T02:30:20.105Z,1019.7
2022-09-12T02:35:20.104Z,1019.7
2022-09-12T02:40:20.140Z,1019.6
2022-09-12T02:45:20.110Z,1019.6
2022-09-12T02:50:20.104Z,1019.8
2022-09-12T02:55:20.105Z,1019.8
2022-09-12T03:00:20.105Z,1019.8
2022-09-12T03:05:20.104Z,1019.7
2022-09-12T03:10:20.106Z,1019.9
2022-09-12T03:15:20.107Z,1019.8
2022-09-12T03:20:20.102Z,1019.8
2022-09-12T03:25:20.108Z,1019.8
2022-09-12T03:30:20.135Z,1019.7
2022-09-12T03:35:22.950Z,1019.8
2022-09-12T03:40:20.105Z,1019.7
2022-09-12T03:45:20.123Z,1019.7
2022-09-12T03:50:20.111Z,1019.8
2022-09-12T03:55:20.117Z,1019.7
2022-09-12T04:00:20.131Z,1019.7
2022-09-12T04:05:20.152Z,1019.7
2022-09-12T04:10:20.105Z,1019.8
2022-09-12T04:15:20.116Z,1019.8
2022-09-12T04:20:20.099Z,1019.8
2022-09-12T04:25:20.109Z,1019.8
2022-09-12T04:30:20.118Z,1019.8
2022-09-12T04:35:20.117Z,1019.8
2022-09-12T04:40:20.097Z,1019.7
2022-09-12T04:45:20.106Z,1019.8
2022-09-12T04:50:20.099Z,1019.8
2022-09-12T04:55:20.253Z,1019.8
2022-09-12T05:00:20.103Z,1019.9
2022-09-12T05:05:20.115Z,1019.8
2022-09-12T05:10:20.103Z,1019.9
2022-09-12T05:15:20.113Z,1019.9
2022-09-12T05:20:20.098Z,1019.9
2022-09-12T05:25:20.103Z,1020.1
2022-09-12T05:30:20.116Z,1020.1
2022-09-12T05:35:20.115Z,1020.1
2022-09-12T05:40:20.100Z,1020.1
2022-09-12T05:45:20.118Z,1020.1
2022-09-12T05:50:20.116Z,1020.2
2022-09-12T05:55:20.119Z,1020.2
2022-09-12T06:00:20.100Z,1020.2
2022-09-12T06:05:20.102Z,1020.2
2022-09-12T06:10:20.099Z,1020.2
2022-09-12T06:15:20.120Z,1020.2
2022-09-12T06:20:20.103Z,1020.3
2022-09-12T06:25:20.105Z,1020.2
2022-09-12T06:30:23.490Z,1020.3
2022-09-12T06:35:20.109Z,1020.3
2022-09-12T06:40:20.155Z,1020.1
2022-09-12T06:45:20.112Z,1020.2
2022-09-12T06:50:20.097Z,1020.2
2022-09-12T06:55:22.578Z,1020.2
2022-09-12T07:00:20.106Z,1020.2
2022-09-12T07:05:20.112Z,1020.2
2022-09-12T07:10:22.283Z,1020.2
2022-09-12T07:15:20.119Z,1020.2
2022-09-12T07:20:20.107Z,1020.2
2022-09-12T07:25:20.104Z,1020.2
2022-09-12T07:30:20.101Z,1020.3
2022-09-12T07:35:20.109Z,1020.2
2022-09-12T07:40:20.119Z,1020.2
2022-09-12T07:45:20.104Z,1020.2
2022-09-12T07:50:20.115Z,1020.2
2022-09-12T07:55:20.140Z,1020.3
2022-09-12T08:00:20.106Z,1020.2
2022-09-12T08:05:20.121Z,1020.2
2022-09-12T08:10:20.098Z,1020.3
2022-09-12T08:15:20.107Z,1020.3
2022-09-12T08:20:20.107Z,1020.3
2022-09-12T08:25:20.101Z,1020.3
2022-09-12T08:30:20.145Z,1020.3
2022-09-12T08:35:20.095Z,1020.3
2022-09-12T08:40:20.154Z,1020.2
2022-09-12T08:45:20.113Z,1020.2
2022-09-12T08:50:20.135Z,1020.2
2022-09-12T08:55:20.115Z,1020.2
2022-09-12T09:00:20.104Z,1020.1
2022-09-12T09:05:20.121Z,1020.2
2022-09-12T09:10:20.105Z,1020.2
2022-09-12T09:15:20.116Z,1020.4
2022-09-12T09:20:21.110Z,1020.3
2022-09-12T09:25:22.828Z,1020.3
2022-09-12T09:30:20.105Z,1020.1
2022-09-12T09:35:20.104Z,1020.2
2022-09-12T09:40:20.157Z,1020.1
2022-09-12T09:45:20.114Z,1020.2
2022-09-12T09:50:20.100Z,1020
2022-09-12T09:55:20.105Z,1020
2022-09-12T10:00:20.112Z,1019.9
2022-09-12T10:15:20.632Z,1019.799999
2022-09-12T10:20:21.781Z,1019.9
2022-09-12T10:25:20.115Z,1019.9
2022-09-12T10:30:20.118Z,1019.7
2022-09-12T10:35:20.120Z,1019.7
2022-09-12T10:40:20.179Z,1019.6
2022-09-12T10:45:20.123Z,1019.5
2022-09-12T10:50:22.738Z,1019.6
2022-09-12T10:55:20.121Z,1019.6
2022-09-12T11:00:20.128Z,1019.5
2022-09-12T11:05:22.684Z,1019.4
2022-09-12T11:10:20.137Z,1019.3
2022-09-12T11:15:20.125Z,1019.2
2022-09-12T11:20:20.126Z,1019.1
2022-09-12T11:25:20.125Z,1019
2022-09-12T11:30:20.108Z,1019
2022-09-12T11:35:20.118Z,1019
2022-09-12T11:40:20.194Z,1019
2022-09-12T11:45:20.110Z,1018.9
2022-09-12T11:50:20.120Z,1018.9
2022-09-12T11:55:20.108Z,1018.8
2022-09-12T12:00:20.105Z,1018.8
2022-09-12T12:05:20.110Z,1018.7
2022-09-12T12:10:20.117Z,1018.7
2022-09-12T12:15:20.107Z,1018.7
2022-09-12T12:20:20.095Z,1018.6
2022-09-12T12:25:21.964Z,1018.6
2022-09-12T12:30:20.109Z,1018.5
2022-09-12T12:35:20.113Z,1018.4
2022-09-12T12:40:20.150Z,1018.4
2022-09-12T12:45:20.116Z,1018.3
2022-09-12T12:50:20.106Z,1018.3
2022-09-12T12:55:20.107Z,1018.1
2022-09-12T13:00:20.110Z,1018.1
2022-09-12T13:05:20.108Z,1018
2022-09-12T13:10:20.105Z,1017.9
2022-09-12T13:15:20.099Z,1017.8
2022-09-12T13:20:28.875Z,1017.7
2022-09-12T13:25:20.107Z,1017.7
2022-09-12T13:30:20.101Z,1017.8
2022-09-12T13:35:20.113Z,1017.7
2022-09-12T13:40:20.138Z,1017.6
2022-09-12T13:45:20.109Z,1017.6
2022-09-12T13:50:20.099Z,1017.4
2022-09-12T13:55:20.116Z,1017.4
2022-09-12T14:00:20.127Z,1017.4
2022-09-12T14:05:20.107Z,1017.3
2022-09-12T14:10:20.101Z,1017.3
2022-09-12T14:15:20.107Z,1017.2
2022-09-12T14:20:20.100Z,1017.1
2022-09-12T14:25:20.107Z,1017
2022-09-12T14:30:20.099Z,1017
2022-09-12T14:35:20.109Z,1016.9
2022-09-12T14:40:20.167Z,1016.9
2022-09-12T14:45:20.125Z,1016.8
2022-09-12T14:50:20.112Z,1016.8
2022-09-12T14:55:20.110Z,1016.8
2022-09-12T15:00:20.121Z,1016.8
2022-09-12T15:05:20.114Z,1016.8
2022-09-12T15:10:20.099Z,1016.7
2022-09-12T15:15:20.106Z,1016.7
2022-09-12T15:20:20.111Z,1016.5
2022-09-12T15:25:20.113Z,1016.6
2022-09-12T15:30:20.116Z,1016.5
2022-09-12T15:35:20.126Z,1016.5
2022-09-12T15:40:20.169Z,1016.4
2022-09-12T15:45:20.115Z,1016.4
2022-09-12T15:50:20.103Z,1016.3
2022-09-12T15:55:20.123Z,1016.4
2022-09-12T16:00:20.114Z,1016.4
2022-09-12T16:05:20.117Z,1016.2
2022-09-12T16:10:20.099Z,1016.2
2022-09-12T16:15:20.107Z,1016
2022-09-12T16:20:20.106Z,1015.9
2022-09-12T16:25:20.116Z,1015.8
2022-09-12T16:30:20.111Z,1015.8
2022-09-12T16:35:20.119Z,1015.8
2022-09-12T16:40:20.176Z,1015.7
2022-09-12T16:45:20.110Z,1015.7
2022-09-12T16:50:20.110Z,1015.6
2022-09-12T16:55:20.121Z,1015.6
2022-09-12T17:00:20.100Z,1015.6
2022-09-12T17:05:20.124Z,1015.5
2022-09-12T17:10:20.096Z,1015.6
2022-09-12T17:15:20.118Z,1015.6
2022-09-12T17:20:20.102Z,1015.7
2022-09-12T17:25:20.122Z,1015.7
2022-09-12T17:30:20.111Z,1015.6
2022-09-12T17:35:20.116Z,1015.6
2022-09-12T17:40:21.767Z,1015.7
2022-09-12T17:45:20.117Z,1015.5
2022-09-12T17:50:32.019Z,1015.6
2022-09-12T17:55:20.106Z,1015.5
2022-09-12T18:00:20.094Z,1015.6
2022-09-12T18:05:20.102Z,1015.6
2022-09-12T18:10:20.111Z,1015.7
2022-09-12T18:15:20.108Z,1015.8
2022-09-12T18:20:20.103Z,1015.8
2022-09-12T18:25:20.107Z,1015.8
2022-09-12T18:30:21.743Z,1015.7
2022-09-12T18:35:20.108Z,1015.8
2022-09-12T18:40:20.171Z,1015.8
2022-09-12T18:45:20.108Z,1015.8
2022-09-12T18:50:20.104Z,1015.8
2022-09-12T18:55:20.104Z,1015.8
2022-09-12T19:00:20.099Z,1015.8
2022-09-12T19:05:20.113Z,1015.8
2022-09-12T19:10:20.107Z,1015.9
2022-09-12T19:15:20.103Z,1015.8
2022-09-12T19:20:20.104Z,1015.8
2022-09-12T19:25:20.108Z,1015.8
2022-09-12T19:30:20.109Z,1015.8
2022-09-12T19:35:20.105Z,1015.8
2022-09-12T19:40:20.167Z,1015.7
2022-09-12T19:45:20.114Z,1015.9
2022-09-12T19:50:20.106Z,1015.8
2022-09-12T19:55:20.108Z,1015.8
2022-09-12T20:00:20.110Z,1015.8
2022-09-12T20:05:20.116Z,1015.8
2022-09-12T20:10:20.102Z,1015.7
2022-09-12T20:15:20.117Z,1015.6
2022-09-12T20:20:20.101Z,1015.7
2022-09-12T20:25:20.100Z,1015.8
2022-09-12T20:30:20.097Z,1015.8
2022-09-12T20:35:20.110Z,1015.8
2022-09-12T20:40:20.135Z,1015.6
2022-09-12T20:45:20.102Z,1015.7
2022-09-12T20:50:20.095Z,1015.6
2022-09-12T20:55:20.105Z,1015.6
2022-09-12T21:00:20.107Z,1015.5
2022-09-12T21:05:20.108Z,1015.5
2022-09-12T21:10:20.106Z,1015.5
2022-09-12T21:15:20.108Z,1015.4
2022-09-12T21:20:20.107Z,1015.3
2022-09-12T21:25:20.107Z,1015.4
2022-09-12T21:30:20.108Z,1015.3
2022-09-12T21:35:20.112Z,1015.3
2022-09-12T21:40:20.147Z,1015.2
2022-09-12T21:45:20.116Z,1015.2
2022-09-12T21:50:20.113Z,1015.2
2022-09-12T21:55:20.100Z,1015.3
2022-09-12T22:00:20.103Z,1015.2
2022-09-12T22:05:20.104Z,1015.2
2022-09-12T22:10:20.101Z,1015.2
2022-09-12T22:20:20.106Z,1015.1
2022-09-12T22:25:20.103Z,1014.9
2022-09-12T22:30:20.103Z,1014.9
2022-09-12T22:35:20.115Z,1014.9
2022-09-12T22:40:20.142Z,1015
2022-09-12T22:45:20.137Z,1015
2022-09-12T22:50:20.093Z,1015
2022-09-12T22:55:20.102Z,1014.9
2022-09-12T23:00:20.100Z,1014.8
2022-09-12T23:05:20.115Z,1014.8
2022-09-12T23:10:20.110Z,1014.9
2022-09-12T23:15:20.109Z,1015
2022-09-12T23:20:20.113Z,1015
2022-09-12T23:25:20.106Z,1014.9
2022-09-12T23:30:20.112Z,1014.8
2022-09-12T23:35:20.115Z,1014.8
2022-09-12T23:40:20.168Z,1014.7
2022-09-12T23:45:20.096Z,1014.8
2022-09-12T23:50:20.092Z,1014.7
2022-09-12T23:55:20.105Z,1014.8
